Time;durP1;ratioP1;P1;durP2;ratioP2;P2;SDS_P1;SDS_P2;PMS_P1;PMS_P2;Temp;Humidity;BMP_temperature;BMP_pressure;BME280_temperature;BME280_humidity;BME280_pressure;Samples;Min_cycle;Max_cycle;Signal;HPM_P1;HPM_P2
2022/08/13 00:02:10;;;;;;;4.28;1.20;;;;;;;;;;4986436;28;20297;-63
2022/08/13 00:04:40;;;;;;;1.30;1.30;;;;;;;;;;4985889;28;20209;-63
2022/08/13 00:07:08;;;;;;;1.30;1.20;;;;;;;;;;4984043;28;20194;-62
2022/08/13 00:09:35;;;;;;;1.02;1.02;;;;;;;;;;4971610;28;20234;-62
2022/08/13 00:17:51;;;;;;;0.98;0.98;;;;;;;;;;5709955;23;20242;-62
2022/08/13 00:20:21;;;;;;;2.08;1.45;;;;;;;;;;4967506;28;20266;-62
2022/08/13 00:22:48;;;;;;;1.20;1.20;;;;;;;;;;4975700;28;20210;-62
2022/08/13 00:25:16;;;;;;;1.40;1.30;;;;;;;;;;4972867;28;20570;-63
2022/08/13 00:27:47;;;;;;;1.95;1.27;;;;;;;;;;4975333;28;20218;-62
2022/08/13 00:30:15;;;;;;;1.30;1.30;;;;;;;;;;4976514;28;20238;-62
2022/08/13 00:32:45;;;;;;;1.48;1.42;;;;;;;;;;4972550;28;20218;-62
2022/08/13 00:35:13;;;;;;;2.60;1.65;;;;;;;;;;4981174;28;20220;-63
2022/08/13 00:37:42;;;;;;;1.67;1.48;;;;;;;;;;4980031;28;20226;-62
2022/08/13 00:40:10;;;;;;;1.67;1.58;;;;;;;;;;4992030;28;20703;-62
2022/08/13 00:42:38;;;;;;;1.45;1.45;;;;;;;;;;4975109;28;20293;-62
2022/08/13 00:45:06;;;;;;;1.40;1.40;;;;;;;;;;4992121;28;20300;-62
2022/08/13 00:50:18;;;;;;;1.17;1.17;;;;;;;;;;4984932;28;20237;-62
2022/08/13 00:52:48;;;;;;;1.08;1.08;;;;;;;;;;4982242;28;20297;-62
2022/08/13 00:55:17;;;;;;;1.60;1.50;;;;;;;;;;4972171;28;20222;-62
2022/08/13 00:57:45;;;;;;;1.42;1.33;;;;;;;;;;4980052;28;20206;-62
2022/08/13 01:00:15;;;;;;;3.38;1.10;;;;;;;;;;4971968;28;20268;-62
2022/08/13 01:02:43;;;;;;;1.48;1.38;;;;;;;;;;4972058;28;20400;-62
2022/08/13 01:05:10;;;;;;;1.50;1.40;;;;;;;;;;4991310;28;20929;-62
2022/08/13 01:07:41;;;;;;;1.20;1.20;;;;;;;;;;4976456;28;20222;-62
2022/08/13 01:10:10;;;;;;;1.90;1.20;;;;;;;;;;4968818;28;20229;-62
2022/08/13 01:12:38;;;;;;;1.08;1.08;;;;;;;;;;4975461;28;20210;-62
2022/08/13 01:15:07;;;;;;;1.20;1.20;;;;;;;;;;4990911;28;20213;-63
2022/08/13 01:17:35;;;;;;;1.30;1.25;;;;;;;;;;4981371;28;20237;-62
2022/08/13 01:20:02;;;;;;;1.13;1.10;;;;;;;;;;4971476;28;20684;-62
2022/08/13 01:22:31;;;;;;;1.10;1.10;;;;;;;;;;4970949;28;20203;-63
2022/08/13 01:24:58;;;;;;;1.38;1.38;;;;;;;;;;4971406;28;20649;-63
2022/08/13 01:27:26;;;;;;;1.17;1.17;;;;;;;;;;4970775;28;20715;-63
2022/08/13 01:29:56;;;;;;;3.28;1.00;;;;;;;;;;4976846;28;20238;-63
2022/08/13 01:32:23;;;;;;;2.65;1.17;;;;;;;;;;4970516;28;20261;-63
2022/08/13 01:34:51;;;;;;;1.83;1.52;;;;;;;;;;4971148;28;20212;-63
2022/08/13 01:37:18;;;;;;;4.40;1.42;;;;;;;;;;4970742;28;20211;-63
2022/08/13 01:39:48;;;;;;;1.23;1.20;;;;;;;;;;4971345;28;20208;-63
2022/08/13 01:42:17;;;;;;;1.17;1.17;;;;;;;;;;4970444;28;20214;-63
2022/08/13 01:44:45;;;;;;;3.92;1.33;;;;;;;;;;4971073;28;20630;-63
2022/08/13 01:52:41;;;;;;;1.90;1.48;;;;;;;;;;4970632;28;20549;-63
2022/08/13 01:55:10;;;;;;;1.30;1.05;;;;;;;;;;4970697;28;20222;-64
2022/08/13 01:57:40;;;;;;;1.65;1.20;;;;;;;;;;4970683;28;20202;-63
2022/08/13 02:00:08;;;;;;;1.08;1.08;;;;;;;;;;4972807;28;20265;-62
2022/08/13 02:02:36;;;;;;;0.90;0.90;;;;;;;;;;4969153;28;20687;-62
2022/08/13 02:05:03;;;;;;;3.92;1.40;;;;;;;;;;4969550;28;20289;-63
2022/08/13 02:07:30;;;;;;;0.95;0.95;;;;;;;;;;4969837;28;20199;-63
2022/08/13 02:09:58;;;;;;;1.10;1.10;;;;;;;;;;4970079;28;20237;-62
2022/08/13 02:12:26;;;;;;;2.75;1.15;;;;;;;;;;4969685;28;20209;-62
2022/08/13 02:14:53;;;;;;;1.10;1.10;;;;;;;;;;4969347;28;20218;-62
2022/08/13 02:17:27;;;;;;;1.65;1.27;;;;;;;;;;4969718;28;20735;-62
2022/08/13 02:20:05;;;;;;;1.45;1.10;;;;;;;;;;4970017;28;20245;-62
2022/08/13 02:22:33;;;;;;;3.92;1.23;;;;;;;;;;4967954;28;20208;-62
2022/08/13 02:25:01;;;;;;;1.23;1.23;;;;;;;;;;4969992;28;20202;-62
2022/08/13 02:27:29;;;;;;;1.10;1.10;;;;;;;;;;4969583;28;20300;-62
2022/08/13 02:29:59;;;;;;;3.38;1.00;;;;;;;;;;4969438;28;20317;-62
2022/08/13 02:32:26;;;;;;;1.13;1.13;;;;;;;;;;4984200;28;20210;-62
2022/08/13 02:34:54;;;;;;;1.20;1.20;;;;;;;;;;4979334;28;20214;-61
2022/08/13 02:37:22;;;;;;;1.38;1.10;;;;;;;;;;4969598;28;20254;-61
2022/08/13 02:39:49;;;;;;;1.30;1.25;;;;;;;;;;4969148;28;20207;-62
2022/08/13 02:42:15;;;;;;;1.17;1.17;;;;;;;;;;4969691;28;20268;-62
2022/08/13 02:44:44;;;;;;;1.00;1.00;;;;;;;;;;4969115;28;20203;-62
2022/08/13 02:47:13;;;;;;;2.38;1.20;;;;;;;;;;4968855;28;20680;-62
2022/08/13 02:49:41;;;;;;;1.25;1.15;;;;;;;;;;4969048;28;20234;-61
2022/08/13 02:52:09;;;;;;;1.10;1.10;;;;;;;;;;4968181;28;20206;-62
2022/08/13 02:54:40;;;;;;;1.63;1.10;;;;;;;;;;4968973;28;20261;-62
2022/08/13 02:57:07;;;;;;;2.92;1.15;;;;;;;;;;4963917;28;20817;-63
2022/08/13 02:59:34;;;;;;;1.95;1.25;;;;;;;;;;4968858;28;20202;-62
2022/08/13 03:02:04;;;;;;;1.30;1.30;;;;;;;;;;4968164;28;20214;-63
2022/08/13 03:04:31;;;;;;;1.25;1.15;;;;;;;;;;4968549;28;20210;-63
2022/08/13 03:06:58;;;;;;;1.58;1.13;;;;;;;;;;4968253;28;20297;-63
2022/08/13 03:09:25;;;;;;;1.02;1.02;;;;;;;;;;4968789;28;20206;-63
2022/08/13 03:11:52;;;;;;;3.80;1.23;;;;;;;;;;4968495;28;20214;-63
2022/08/13 03:14:20;;;;;;;2.45;1.30;;;;;;;;;;4974593;28;20213;-63
2022/08/13 03:16:47;;;;;;;1.38;0.95;;;;;;;;;;4966536;28;20229;-62
2022/08/13 03:19:16;;;;;;;2.60;1.30;;;;;;;;;;4966514;28;20262;-64
2022/08/13 03:21:44;;;;;;;1.25;1.25;;;;;;;;;;4966749;28;20210;-62
2022/08/13 03:24:12;;;;;;;1.10;1.10;;;;;;;;;;4967349;28;20202;-63
2022/08/13 03:26:39;;;;;;;1.40;1.30;;;;;;;;;;4967463;28;20229;-63
2022/08/13 03:29:07;;;;;;;1.20;1.20;;;;;;;;;;4967298;28;20218;-62
2022/08/13 03:31:35;;;;;;;1.63;1.52;;;;;;;;;;4967790;28;20327;-63
2022/08/13 03:34:03;;;;;;;0.98;0.98;;;;;;;;;;4966765;28;20642;-63
2022/08/13 03:36:32;;;;;;;1.30;1.30;;;;;;;;;;4967860;28;20297;-63
2022/08/13 03:39:00;;;;;;;1.05;1.05;;;;;;;;;;4966508;28;20265;-62
2022/08/13 03:41:27;;;;;;;1.85;1.20;;;;;;;;;;4967576;28;20215;-63
2022/08/13 03:43:54;;;;;;;1.40;1.40;;;;;;;;;;4967337;28;20334;-62
2022/08/13 03:46:22;;;;;;;1.00;1.00;;;;;;;;;;4967478;28;20210;-63
2022/08/13 03:48:50;;;;;;;1.63;1.23;;;;;;;;;;4965911;28;20210;-63
2022/08/13 03:51:20;;;;;;;0.90;0.90;;;;;;;;;;4968287;28;20253;-63
2022/08/13 03:53:49;;;;;;;1.40;1.30;;;;;;;;;;4967589;28;20214;-63
2022/08/13 03:56:18;;;;;;;1.00;1.00;;;;;;;;;;4971206;28;20217;-63
2022/08/13 03:58:45;;;;;;;1.30;1.20;;;;;;;;;;4971891;28;20280;-63
2022/08/13 04:01:14;;;;;;;1.88;1.20;;;;;;;;;;4971415;28;20205;-62
2022/08/13 04:03:41;;;;;;;1.35;1.13;;;;;;;;;;4970073;28;20820;-63
2022/08/13 04:06:12;;;;;;;1.02;1.02;;;;;;;;;;4971169;28;20246;-63
2022/08/13 04:08:39;;;;;;;5.47;1.20;;;;;;;;;;4971227;28;20210;-63
2022/08/13 04:11:09;;;;;;;1.48;1.38;;;;;;;;;;4970988;28;20222;-63
2022/08/13 04:13:37;;;;;;;1.33;1.33;;;;;;;;;;4970731;28;20238;-62
2022/08/13 04:16:05;;;;;;;1.15;1.15;;;;;;;;;;4970546;28;20297;-63
2022/08/13 04:18:35;;;;;;;1.45;1.20;;;;;;;;;;4970991;28;20708;-63
2022/08/13 04:21:03;;;;;;;1.00;1.00;;;;;;;;;;4970825;28;20210;-63
2022/08/13 04:23:30;;;;;;;1.20;1.10;;;;;;;;;;4970874;28;20221;-63
2022/08/13 04:25:58;;;;;;;1.00;1.00;;;;;;;;;;4970633;28;20215;-63
2022/08/13 04:28:26;;;;;;;1.27;1.27;;;;;;;;;;4971098;28;20206;-63
2022/08/13 04:30:53;;;;;;;2.75;1.00;;;;;;;;;;4971303;28;20234;-61
2022/08/13 04:33:20;;;;;;;1.00;1.00;;;;;;;;;;4970359;28;20202;-63
2022/08/13 04:35:47;;;;;;;1.27;1.23;;;;;;;;;;4971041;28;20691;-62
2022/08/13 04:38:15;;;;;;;1.50;1.50;;;;;;;;;;4970532;28;20209;-63
2022/08/13 04:40:42;;;;;;;1.20;1.20;;;;;;;;;;4971090;28;20222;-63
2022/08/13 04:43:11;;;;;;;1.20;1.20;;;;;;;;;;4969805;28;20222;-63
2022/08/13 04:45:40;;;;;;;1.45;1.45;;;;;;;;;;4970627;28;20265;-63
2022/08/13 04:48:09;;;;;;;2.38;1.35;;;;;;;;;;4969618;28;20233;-63
2022/08/13 04:50:37;;;;;;;2.47;1.10;;;;;;;;;;4970695;28;20310;-62
2022/08/13 04:53:05;;;;;;;2.20;1.30;;;;;;;;;;4970189;28;20206;-62
2022/08/13 04:55:32;;;;;;;2.35;1.35;;;;;;;;;;4970538;28;20195;-63
2022/08/13 04:58:00;;;;;;;2.25;1.95;;;;;;;;;;4970432;28;20202;-62
2022/08/13 05:00:32;;;;;;;1.20;1.20;;;;;;;;;;4970544;28;20207;-62
2022/08/13 05:03:07;;;;;;;1.85;1.23;;;;;;;;;;4968499;28;20211;-63
2022/08/13 05:05:35;;;;;;;1.17;1.17;;;;;;;;;;4969955;28;20205;-63
2022/08/13 05:08:02;;;;;;;1.35;1.35;;;;;;;;;;4970234;28;20726;-63
2022/08/13 05:10:30;;;;;;;1.92;1.20;;;;;;;;;;4970426;28;20229;-63
2022/08/13 05:12:58;;;;;;;1.63;1.63;;;;;;;;;;4969677;28;20264;-62
2022/08/13 05:15:25;;;;;;;1.88;1.38;;;;;;;;;;4969969;28;20208;-62
2022/08/13 05:17:53;;;;;;;1.77;1.20;;;;;;;;;;4969079;28;20230;-62
2022/08/13 05:20:22;;;;;;;5.05;1.45;;;;;;;;;;4968274;28;20226;-62
2022/08/13 05:22:50;;;;;;;1.40;1.40;;;;;;;;;;4970423;28;20228;-63
2022/08/13 05:25:18;;;;;;;2.17;1.38;;;;;;;;;;4970687;28;20225;-62
2022/08/13 05:27:45;;;;;;;1.60;1.50;;;;;;;;;;4969300;28;20210;-63
2022/08/13 05:30:13;;;;;;;1.15;1.15;;;;;;;;;;4968799;28;20237;-63
2022/08/13 05:32:40;;;;;;;1.77;1.13;;;;;;;;;;4969032;28;20233;-63
2022/08/13 05:35:08;;;;;;;2.05;1.30;;;;;;;;;;4970023;28;20202;-63
2022/08/13 05:37:37;;;;;;;1.25;1.13;;;;;;;;;;4970054;28;20206;-63
2022/08/13 05:40:05;;;;;;;1.55;1.35;;;;;;;;;;4969834;28;21021;-63
2022/08/13 05:42:33;;;;;;;2.08;1.80;;;;;;;;;;4969669;28;20202;-63
2022/08/13 05:45:01;;;;;;;1.33;1.33;;;;;;;;;;4969559;28;20207;-62
2022/08/13 05:47:29;;;;;;;1.30;1.30;;;;;;;;;;4969238;28;20220;-63
2022/08/13 05:49:56;;;;;;;2.90;1.75;;;;;;;;;;4970181;28;20215;-63
2022/08/13 05:52:25;;;;;;;1.98;1.75;;;;;;;;;;4969319;28;20226;-63
2022/08/13 05:54:56;;;;;;;1.48;1.40;;;;;;;;;;4964937;28;20214;-64
2022/08/13 05:57:23;;;;;;;1.58;1.48;;;;;;;;;;4970636;28;20214;-63
2022/08/13 06:05:16;;;;;;;1.60;1.60;;;;;;;;;;4967352;28;20361;-64
2022/08/13 06:07:44;;;;;;;3.80;1.50;;;;;;;;;;4975613;28;20210;-63
2022/08/13 06:10:12;;;;;;;1.50;1.50;;;;;;;;;;4970608;28;20317;-62
2022/08/13 06:12:43;;;;;;;1.33;1.30;;;;;;;;;;4955677;28;20790;-63
2022/08/13 06:15:11;;;;;;;1.10;1.10;;;;;;;;;;4965985;28;20214;-64
2022/08/13 06:17:39;;;;;;;1.42;1.35;;;;;;;;;;4969643;28;20234;-64
2022/08/13 06:20:07;;;;;;;1.35;1.35;;;;;;;;;;4969903;28;20246;-63
2022/08/13 06:22:34;;;;;;;2.10;1.63;;;;;;;;;;4967179;28;20199;-63
2022/08/13 06:25:06;;;;;;;1.65;1.55;;;;;;;;;;4970398;28;20225;-63
2022/08/13 06:27:34;;;;;;;3.75;2.50;;;;;;;;;;4958069;28;20300;-63
2022/08/13 06:30:01;;;;;;;2.72;2.53;;;;;;;;;;4970382;28;20222;-63
2022/08/13 06:32:31;;;;;;;2.28;2.00;;;;;;;;;;4968824;28;20301;-64
2022/08/13 06:34:59;;;;;;;3.30;1.67;;;;;;;;;;4970267;28;20222;-64
2022/08/13 06:37:27;;;;;;;3.63;1.42;;;;;;;;;;4970113;28;20649;-64
2022/08/13 06:39:56;;;;;;;3.67;1.60;;;;;;;;;;4970052;28;20219;-64
2022/08/13 06:42:24;;;;;;;1.65;1.55;;;;;;;;;;4969798;28;20249;-64
2022/08/13 06:44:55;;;;;;;1.40;1.40;;;;;;;;;;4970125;28;20702;-63
2022/08/13 06:47:25;;;;;;;7.35;1.92;;;;;;;;;;4969778;28;20241;-63
2022/08/13 06:49:53;;;;;;;2.30;1.80;;;;;;;;;;4969154;28;20301;-64
2022/08/13 06:52:20;;;;;;;1.45;1.35;;;;;;;;;;4968898;28;20230;-63
2022/08/13 06:54:48;;;;;;;1.40;1.30;;;;;;;;;;4969068;28;20213;-64
2022/08/13 06:57:16;;;;;;;1.40;1.30;;;;;;;;;;4969023;28;20216;-63
2022/08/13 06:59:43;;;;;;;3.45;1.50;;;;;;;;;;4950391;28;20210;-63
2022/08/13 07:02:18;;;;;;;3.00;1.35;;;;;;;;;;4968004;28;20199;-64
2022/08/13 07:04:48;;;;;;;2.65;1.33;;;;;;;;;;4968653;28;20209;-63
2022/08/13 07:07:18;;;;;;;1.40;1.30;;;;;;;;;;4969128;28;20206;-63
2022/08/13 07:09:45;;;;;;;4.82;1.33;;;;;;;;;;4968818;28;20292;-63
2022/08/13 07:12:13;;;;;;;2.95;1.30;;;;;;;;;;4968179;28;20223;-63
2022/08/13 07:14:42;;;;;;;3.28;1.30;;;;;;;;;;4974450;28;20202;-63
2022/08/13 07:17:10;;;;;;;3.42;1.25;;;;;;;;;;4968543;28;20250;-63
2022/08/13 07:19:38;;;;;;;2.55;1.40;;;;;;;;;;4968282;28;20230;-64
2022/08/13 07:22:05;;;;;;;1.58;1.58;;;;;;;;;;4970760;28;20293;-64
2022/08/13 07:24:33;;;;;;;1.58;1.30;;;;;;;;;;4972905;28;20249;-64
2022/08/13 07:27:03;;;;;;;2.35;1.10;;;;;;;;;;4968730;28;20202;-64
2022/08/13 07:29:32;;;;;;;1.60;1.48;;;;;;;;;;4965788;28;20210;-63
2022/08/13 07:32:02;;;;;;;1.75;1.27;;;;;;;;;;4968814;28;20265;-64
2022/08/13 07:34:31;;;;;;;1.42;1.35;;;;;;;;;;4969170;28;21018;-63
2022/08/13 07:37:03;;;;;;;2.60;1.50;;;;;;;;;;4968542;28;20207;-63
2022/08/13 07:39:31;;;;;;;1.20;1.10;;;;;;;;;;4969480;28;20277;-64
2022/08/13 07:41:58;;;;;;;1.38;1.00;;;;;;;;;;4969039;28;20226;-64
2022/08/13 07:44:25;;;;;;;1.10;1.10;;;;;;;;;;4969090;28;20202;-66
2022/08/13 07:46:53;;;;;;;6.05;1.45;;;;;;;;;;4969205;28;20215;-62
2022/08/13 07:49:21;;;;;;;2.17;1.60;;;;;;;;;;4967952;28;20207;-63
2022/08/13 07:51:48;;;;;;;1.40;1.35;;;;;;;;;;4967921;28;20225;-63
2022/08/13 07:54:17;;;;;;;1.08;1.08;;;;;;;;;;4968970;28;20226;-62
2022/08/13 07:56:47;;;;;;;1.42;1.27;;;;;;;;;;4969408;28;20325;-62
2022/08/13 07:59:15;;;;;;;5.10;1.30;;;;;;;;;;4966880;28;20841;-64
2022/08/13 08:01:46;;;;;;;1.48;1.00;;;;;;;;;;4968277;28;20202;-63
2022/08/13 08:04:14;;;;;;;1.70;0.90;;;;;;;;;;4967758;28;20218;-64
2022/08/13 08:06:41;;;;;;;1.20;1.10;;;;;;;;;;4968529;28;20582;-65
2022/08/13 08:09:10;;;;;;;5.22;1.17;;;;;;;;;;4968797;28;20580;-64
2022/08/13 08:14:32;;;;;;;0.85;0.85;;;;;;;;;;4928531;28;20353;-63
2022/08/13 08:17:00;;;;;;;1.17;1.10;;;;;;;;;;4969134;28;20284;-66
2022/08/13 08:19:28;;;;;;;1.33;1.00;;;;;;;;;;4967933;28;20262;-65
2022/08/13 08:21:58;;;;;;;1.17;1.17;;;;;;;;;;4965580;28;20198;-65
2022/08/13 08:24:26;;;;;;;1.85;1.00;;;;;;;;;;4968184;28;20233;-66
2022/08/13 08:26:55;;;;;;;1.00;1.00;;;;;;;;;;4968675;28;20293;-67
2022/08/13 08:29:22;;;;;;;1.10;1.10;;;;;;;;;;4968610;28;20640;-66
2022/08/13 08:31:50;;;;;;;1.20;1.10;;;;;;;;;;4969136;28;20246;-66
2022/08/13 08:34:18;;;;;;;1.85;1.05;;;;;;;;;;4968682;28;20269;-66
2022/08/13 08:36:45;;;;;;;18.45;2.08;;;;;;;;;;4968508;28;20202;-66
2022/08/13 08:44:56;;;;;;;3.22;1.23;;;;;;;;;;4965279;28;20312;-66
2022/08/13 08:47:27;;;;;;;1.17;1.02;;;;;;;;;;4971453;28;20589;-66
2022/08/13 08:49:56;;;;;;;1.27;1.10;;;;;;;;;;4971995;28;20213;-66
2022/08/13 08:53:19;;;;;;;1.10;1.10;;;;;;;;;;4972069;28;20266;-70
2022/08/13 08:55:12;;;;;;;1.50;1.50;;;;;;;;;;4952761;29;20210;-66
2022/08/13 08:57:41;;;;;;;1.02;1.00;;;;;;;;;;4968072;28;20610;-66
2022/08/13 09:00:14;;;;;;;1.30;1.20;;;;;;;;;;4971833;28;20293;-66
2022/08/13 09:02:42;;;;;;;1.10;1.10;;;;;;;;;;4971659;28;20202;-66
2022/08/13 09:05:12;;;;;;;1.23;1.10;;;;;;;;;;4971931;28;20219;-66
2022/08/13 09:07:41;;;;;;;1.30;1.20;;;;;;;;;;4970842;28;20217;-62
2022/08/13 09:10:10;;;;;;;1.00;1.00;;;;;;;;;;4968190;28;20217;-64
2022/08/13 09:12:40;;;;;;;1.05;1.05;;;;;;;;;;4970993;28;20221;-64
2022/08/13 09:15:09;;;;;;;1.10;1.10;;;;;;;;;;4970631;28;20249;-66
2022/08/13 09:17:37;;;;;;;1.10;1.00;;;;;;;;;;4970535;28;20237;-67
2022/08/13 09:20:05;;;;;;;1.30;1.30;;;;;;;;;;4970599;28;20245;-67
2022/08/13 09:22:32;;;;;;;1.30;1.23;;;;;;;;;;4971073;28;20210;-67
2022/08/13 09:25:00;;;;;;;1.30;1.20;;;;;;;;;;4971116;28;20221;-67
2022/08/13 09:27:28;;;;;;;1.10;1.10;;;;;;;;;;4970556;28;20261;-67
2022/08/13 09:29:56;;;;;;;2.65;1.35;;;;;;;;;;4965692;28;20222;-67
2022/08/13 09:32:24;;;;;;;1.52;1.20;;;;;;;;;;4969242;28;20231;-67
2022/08/13 09:34:52;;;;;;;1.60;1.50;;;;;;;;;;4971304;28;20308;-67
2022/08/13 09:37:19;;;;;;;1.25;1.13;;;;;;;;;;4970862;28;20262;-67
2022/08/13 09:39:49;;;;;;;3.70;1.10;;;;;;;;;;4970562;28;20214;-67
2022/08/13 09:42:19;;;;;;;1.10;1.10;;;;;;;;;;4971193;28;20269;-67
2022/08/13 09:44:46;;;;;;;1.20;1.20;;;;;;;;;;4970605;28;20214;-64
2022/08/13 09:47:14;;;;;;;0.85;0.85;;;;;;;;;;4972725;28;20269;-64
2022/08/13 09:49:46;;;;;;;1.10;1.10;;;;;;;;;;4970286;28;20214;-64
2022/08/13 09:52:13;;;;;;;1.95;1.08;;;;;;;;;;4970414;28;20604;-63
2022/08/13 09:54:40;;;;;;;1.17;1.17;;;;;;;;;;4969977;28;20855;-65
2022/08/13 09:57:08;;;;;;;2.25;1.40;;;;;;;;;;4970296;28;20923;-64
2022/08/13 09:59:35;;;;;;;3.70;1.23;;;;;;;;;;4971021;28;20220;-65
2022/08/13 10:02:05;;;;;;;1.33;1.20;;;;;;;;;;4970314;28;20202;-64
2022/08/13 10:04:32;;;;;;;1.30;1.20;;;;;;;;;;4969429;28;20289;-65
2022/08/13 10:07:01;;;;;;;2.20;1.30;;;;;;;;;;4969682;28;20214;-63
2022/08/13 10:09:28;;;;;;;1.20;1.20;;;;;;;;;;4959180;28;20206;-62
2022/08/13 10:11:55;;;;;;;1.20;1.20;;;;;;;;;;4964591;28;20228;-62
2022/08/13 10:14:22;;;;;;;1.10;1.10;;;;;;;;;;4971636;28;20214;-66
2022/08/13 10:16:50;;;;;;;1.20;1.20;;;;;;;;;;4969858;28;20241;-62
2022/08/13 10:19:17;;;;;;;1.95;1.13;;;;;;;;;;4969897;28;20241;-62
2022/08/13 10:21:44;;;;;;;1.10;1.10;;;;;;;;;;4969321;28;20303;-63
2022/08/13 10:24:13;;;;;;;1.17;1.17;;;;;;;;;;4969394;28;20210;-63
2022/08/13 10:26:40;;;;;;;1.27;1.20;;;;;;;;;;4967564;28;20214;-64
2022/08/13 10:29:08;;;;;;;1.02;1.02;;;;;;;;;;4961318;28;20671;-68
2022/08/13 10:31:35;;;;;;;1.10;1.10;;;;;;;;;;4969464;28;20264;-64
2022/08/13 10:34:03;;;;;;;1.00;1.00;;;;;;;;;;4968819;28;20223;-66
2022/08/13 10:36:31;;;;;;;1.10;1.10;;;;;;;;;;4969430;28;20317;-65
2022/08/13 10:38:58;;;;;;;0.90;0.90;;;;;;;;;;4969776;28;20217;-65
2022/08/13 10:41:26;;;;;;;1.02;1.02;;;;;;;;;;4969066;28;20202;-65
2022/08/13 10:43:56;;;;;;;2.53;1.17;;;;;;;;;;4968593;28;20691;-67
2022/08/13 10:46:23;;;;;;;1.20;1.20;;;;;;;;;;4961716;28;20645;-67
2022/08/13 10:48:55;;;;;;;1.02;1.00;;;;;;;;;;4968906;28;20221;-66
2022/08/13 10:51:22;;;;;;;1.23;1.23;;;;;;;;;;4968760;28;20211;-67
2022/08/13 10:53:59;;;;;;;1.27;1.20;;;;;;;;;;4965468;28;20253;-66
2022/08/13 10:56:30;;;;;;;1.27;1.27;;;;;;;;;;4967795;28;20994;-66
2022/08/13 10:58:57;;;;;;;1.27;1.20;;;;;;;;;;4967759;28;20198;-66
2022/08/13 11:01:26;;;;;;;1.10;1.10;;;;;;;;;;4967775;28;20217;-65
2022/08/13 11:03:55;;;;;;;2.55;1.00;;;;;;;;;;4956416;28;20290;-65
2022/08/13 11:06:24;;;;;;;1.05;1.02;;;;;;;;;;4967880;28;20206;-63
2022/08/13 11:08:54;;;;;;;1.10;1.10;;;;;;;;;;4967688;28;20214;-72
2022/08/13 11:11:22;;;;;;;1.27;1.20;;;;;;;;;;4966584;28;20257;-65
2022/08/13 11:13:50;;;;;;;1.10;1.10;;;;;;;;;;4960528;28;20677;-65
2022/08/13 11:19:14;;;;;;;1.55;1.45;;;;;;;;;;4966406;28;20909;-64
2022/08/13 11:21:41;;;;;;;1.00;1.00;;;;;;;;;;4978622;28;20739;-65
2022/08/13 11:24:08;;;;;;;1.05;1.05;;;;;;;;;;4968951;28;20261;-65
2022/08/13 11:26:36;;;;;;;2.47;1.50;;;;;;;;;;4967958;28;20688;-65
2022/08/13 11:29:04;;;;;;;1.65;1.20;;;;;;;;;;4981066;28;20571;-64
2022/08/13 11:31:31;;;;;;;2.38;1.25;;;;;;;;;;4979511;28;20225;-64
2022/08/13 11:33:58;;;;;;;1.17;1.17;;;;;;;;;;4966751;28;20297;-65
2022/08/13 11:36:25;;;;;;;2.05;1.05;;;;;;;;;;4968089;28;20198;-66
2022/08/13 11:38:52;;;;;;;1.40;1.30;;;;;;;;;;4968228;28;20221;-68
2022/08/13 11:41:20;;;;;;;1.10;1.10;;;;;;;;;;4967697;28;20206;-72
2022/08/13 11:43:48;;;;;;;1.75;1.10;;;;;;;;;;4968205;28;20211;-66
2022/08/13 11:46:16;;;;;;;2.50;1.40;;;;;;;;;;4967378;28;20345;-67
2022/08/13 11:48:43;;;;;;;1.10;1.10;;;;;;;;;;4968096;28;20218;-65
2022/08/13 11:51:10;;;;;;;1.40;1.30;;;;;;;;;;4968230;28;20203;-65
2022/08/13 11:53:37;;;;;;;1.30;1.30;;;;;;;;;;4976511;28;20222;-65
2022/08/13 11:56:04;;;;;;;1.48;1.40;;;;;;;;;;4968686;28;20214;-66
2022/08/13 11:58:33;;;;;;;1.08;1.08;;;;;;;;;;4968574;28;20707;-66
2022/08/13 12:01:05;;;;;;;2.70;1.33;;;;;;;;;;4968691;28;20313;-64
2022/08/13 12:03:33;;;;;;;2.22;1.30;;;;;;;;;;4968277;28;20760;-63
2022/08/13 12:06:00;;;;;;;1.55;1.52;;;;;;;;;;4968101;28;20202;-64
2022/08/13 12:08:27;;;;;;;2.53;1.65;;;;;;;;;;4968423;28;20872;-69
2022/08/13 12:10:54;;;;;;;2.60;1.52;;;;;;;;;;4968845;28;20214;-67
2022/08/13 12:13:21;;;;;;;2.67;1.27;;;;;;;;;;4970748;28;20312;-64
2022/08/13 12:15:49;;;;;;;1.75;1.35;;;;;;;;;;4970863;28;20214;-63
2022/08/13 12:18:17;;;;;;;1.50;1.50;;;;;;;;;;4971069;28;20648;-75
2022/08/13 12:20:46;;;;;;;1.20;1.20;;;;;;;;;;4972467;28;20210;-66
2022/08/13 12:23:13;;;;;;;1.55;1.35;;;;;;;;;;4970110;28;20325;-64
2022/08/13 12:25:40;;;;;;;2.95;1.35;;;;;;;;;;4971648;28;20741;-64
2022/08/13 12:28:08;;;;;;;1.30;1.30;;;;;;;;;;4981972;28;20687;-66
2022/08/13 12:30:35;;;;;;;2.08;1.45;;;;;;;;;;4976326;28;20210;-65
2022/08/13 12:33:02;;;;;;;1.27;1.27;;;;;;;;;;4971929;28;20549;-63
2022/08/13 12:35:29;;;;;;;1.58;1.48;;;;;;;;;;4970988;28;20221;-68
2022/08/13 12:37:58;;;;;;;1.30;1.30;;;;;;;;;;4971632;28;20226;-64
2022/08/13 12:40:25;;;;;;;1.45;1.35;;;;;;;;;;4971978;28;21016;-65
2022/08/13 12:42:52;;;;;;;1.50;1.40;;;;;;;;;;4971307;28;20624;-65
2022/08/13 12:45:19;;;;;;;1.45;1.45;;;;;;;;;;4971816;28;20227;-64
2022/08/13 12:47:46;;;;;;;1.30;1.30;;;;;;;;;;4971253;28;20268;-65
2022/08/13 12:50:22;;;;;;;3.70;1.58;;;;;;;;;;4972738;28;20218;-64
2022/08/13 12:52:50;;;;;;;1.60;1.60;;;;;;;;;;4969009;28;20233;-64
2022/08/13 12:55:18;;;;;;;1.98;1.52;;;;;;;;;;4976097;28;20245;-64
2022/08/13 12:57:45;;;;;;;1.50;1.50;;;;;;;;;;4974037;28;20206;-64
2022/08/13 13:00:12;;;;;;;1.67;1.67;;;;;;;;;;4971124;28;20206;-64
2022/08/13 13:02:39;;;;;;;2.50;1.17;;;;;;;;;;4976657;28;20623;-64
2022/08/13 13:05:07;;;;;;;2.40;1.50;;;;;;;;;;4971264;28;20249;-65
2022/08/13 13:07:34;;;;;;;1.52;1.52;;;;;;;;;;4971427;28;20233;-65
2022/08/13 13:10:02;;;;;;;1.17;1.17;;;;;;;;;;4970016;28;20217;-65
2022/08/13 13:12:30;;;;;;;1.33;1.23;;;;;;;;;;4985895;28;20201;-63
2022/08/13 13:14:57;;;;;;;1.30;1.30;;;;;;;;;;4976720;28;20695;-64
2022/08/13 13:17:24;;;;;;;4.00;1.25;;;;;;;;;;4971979;28;20227;-63
2022/08/13 13:19:53;;;;;;;1.17;1.17;;;;;;;;;;4968305;28;20244;-63
2022/08/13 13:22:20;;;;;;;1.50;1.50;;;;;;;;;;4971100;28;20214;-64
2022/08/13 13:24:47;;;;;;;1.25;1.25;;;;;;;;;;4970319;28;20234;-63
2022/08/13 13:27:14;;;;;;;1.75;1.48;;;;;;;;;;4971010;28;20214;-63
2022/08/13 13:29:43;;;;;;;1.20;1.20;;;;;;;;;;4970671;28;20703;-63
2022/08/13 13:32:12;;;;;;;2.08;1.52;;;;;;;;;;4970128;28;20684;-64
2022/08/13 13:34:42;;;;;;;1.52;1.52;;;;;;;;;;4969685;28;20328;-63
2022/08/13 13:37:09;;;;;;;1.98;1.88;;;;;;;;;;4970559;28;20210;-67
2022/08/13 13:39:36;;;;;;;3.92;1.60;;;;;;;;;;4970241;28;20206;-67
2022/08/13 13:42:03;;;;;;;1.92;1.52;;;;;;;;;;4970108;28;20241;-67
2022/08/13 13:44:30;;;;;;;5.72;5.40;;;;;;;;;;4969486;28;20285;-62
2022/08/13 13:46:59;;;;;;;7.40;7.03;;;;;;;;;;4970104;28;20233;-68
2022/08/13 13:49:26;;;;;;;6.38;6.07;;;;;;;;;;4970711;28;20210;-64
2022/08/13 13:51:54;;;;;;;5.68;5.47;;;;;;;;;;4969416;28;20214;-64
2022/08/13 13:54:21;;;;;;;8.07;7.32;;;;;;;;;;4969737;28;20237;-65
2022/08/13 13:56:48;;;;;;;7.47;6.97;;;;;;;;;;4970113;28;20580;-64
2022/08/13 13:59:15;;;;;;;11.73;7.50;;;;;;;;;;4970349;28;20207;-64
2022/08/13 14:01:43;;;;;;;3.50;3.40;;;;;;;;;;4970586;28;20217;-64
2022/08/13 14:04:11;;;;;;;3.80;3.60;;;;;;;;;;4970219;28;20206;-64
2022/08/13 14:06:39;;;;;;;3.22;3.22;;;;;;;;;;4970593;28;20707;-65
2022/08/13 14:09:07;;;;;;;8.00;4.28;;;;;;;;;;4970501;28;20210;-64
2022/08/13 14:11:34;;;;;;;4.53;4.40;;;;;;;;;;4968961;28;20214;-65
2022/08/13 14:14:01;;;;;;;4.63;4.47;;;;;;;;;;4967428;28;20233;-64
2022/08/13 14:16:28;;;;;;;4.20;4.07;;;;;;;;;;4968707;28;20206;-65
2022/08/13 14:18:57;;;;;;;4.10;3.97;;;;;;;;;;4969093;28;20246;-65
2022/08/13 14:21:26;;;;;;;4.80;4.68;;;;;;;;;;4968033;28;20748;-64
2022/08/13 14:23:53;;;;;;;7.93;7.43;;;;;;;;;;4969041;28;20206;-64
2022/08/13 14:26:22;;;;;;;7.65;6.95;;;;;;;;;;4970001;28;20210;-63
2022/08/13 14:28:50;;;;;;;4.97;4.78;;;;;;;;;;4969874;28;20244;-64
2022/08/13 14:31:17;;;;;;;4.50;4.20;;;;;;;;;;4969760;28;20409;-64
2022/08/13 14:33:44;;;;;;;3.33;3.13;;;;;;;;;;4969433;28;20240;-63
2022/08/13 14:36:11;;;;;;;3.42;3.22;;;;;;;;;;4968590;28;20217;-64
2022/08/13 14:38:40;;;;;;;3.92;2.78;;;;;;;;;;4969543;28;20221;-64
2022/08/13 14:41:07;;;;;;;4.05;3.85;;;;;;;;;;4969178;28;20210;-64
2022/08/13 14:43:35;;;;;;;2.95;2.85;;;;;;;;;;4968148;28;20205;-62
2022/08/13 14:46:04;;;;;;;4.45;2.35;;;;;;;;;;4965395;28;20571;-63
2022/08/13 14:48:31;;;;;;;3.90;2.75;;;;;;;;;;4966144;28;20270;-64
2022/08/13 14:51:00;;;;;;;3.03;2.92;;;;;;;;;;4966075;28;20221;-63
2022/08/13 14:53:27;;;;;;;2.80;2.80;;;;;;;;;;4966959;28;20897;-65
2022/08/13 14:55:58;;;;;;;2.42;2.33;;;;;;;;;;4978388;28;20221;-65
2022/08/13 14:58:25;;;;;;;3.63;2.20;;;;;;;;;;4965090;28;20198;-64
2022/08/13 15:00:55;;;;;;;2.90;2.60;;;;;;;;;;4965614;28;20213;-66
2022/08/13 15:03:23;;;;;;;2.40;2.40;;;;;;;;;;4966668;28;20224;-65
2022/08/13 15:05:51;;;;;;;2.40;2.40;;;;;;;;;;4967386;28;20589;-65
2022/08/13 15:08:18;;;;;;;2.03;2.03;;;;;;;;;;4965646;28;20224;-68
2022/08/13 15:10:49;;;;;;;2.60;2.50;;;;;;;;;;4966449;28;20713;-67
2022/08/13 15:13:19;;;;;;;2.00;1.92;;;;;;;;;;4964314;28;20613;-66
2022/08/13 15:15:46;;;;;;;1.70;1.70;;;;;;;;;;4967343;28;20214;-68
2022/08/13 15:18:14;;;;;;;1.35;1.35;;;;;;;;;;4967366;28;20568;-67
2022/08/13 15:20:41;;;;;;;3.28;1.67;;;;;;;;;;4967692;28;20210;-67